sensor_id;sensor_type;location;lat;lon;timestamp;P1;P2;P0
52290;PMS5003;39663;45.432;28.050;2023-04-24T00:07:36;24.0;24.0;
52290;PMS5003;39663;45.432;28.050;2023-04-24T00:08:08;21.0;18.0;
52290;PMS5003;39663;45.432;28.050;2023-04-24T00:08:39;22.0;21.0;
52290;PMS5003;39663;45.432;28.050;2023-04-24T00:09:11;21.0;20.0;
52290;PMS5003;39663;45.432;28.050;2023-04-24T00:09:42;22.0;19.0;
52290;PMS5003;39663;45.432;28.050;2023-04-24T00:10:14;27.0;21.0;
52290;PMS5003;39663;45.432;28.050;2023-04-24T00:10:46;22.0;22.0;
52290;PMS5003;39663;45.432;28.050;2023-04-24T00:11:17;19.0;18.0;
52290;PMS5003;39663;45.432;28.050;2023-04-24T00:11:50;23.0;22.0;
52290;PMS5003;39663;45.432;28.050;2023-04-24T00:12:21;18.0;18.0;
52290;PMS5003;39663;45.432;28.050;2023-04-24T00:12:53;19.0;19.0;
52290;PMS5003;39663;45.432;28.050;2023-04-24T00:13:24;20.0;18.0;
52290;PMS5003;39663;45.432;28.050;2023-04-24T00:13:56;21.0;21.0;
52290;PMS5003;39663;45.432;28.050;2023-04-24T00:14:28;26.0;26.0;
52290;PMS5003;39663;45.432;28.050;2023-04-24T00:15:00;23.0;22.0;
52290;PMS5003;39663;45.432;28.050;2023-04-24T00:15:31;18.0;18.0;
52290;PMS5003;39663;45.432;28.050;2023-04-24T00:16:03;18.0;17.0;
52290;PMS5003;39663;45.432;28.050;2023-04-24T00:16:35;21.0;21.0;
52290;PMS5003;39663;45.432;28.050;2023-04-24T00:17:07;23.0;21.0;
52290;PMS5003;39663;45.432;28.050;2023-04-24T00:17:39;21.0;20.0;
52290;PMS5003;39663;45.432;28.050;2023-04-24T00:18:10;22.0;19.0;
52290;PMS5003;39663;45.432;28.050;2023-04-24T00:18:42;27.0;24.0;
52290;PMS5003;39663;45.432;28.050;2023-04-24T00:19:13;20.0;20.0;
52290;PMS5003;39663;45.432;28.050;2023-04-24T00:19:45;21.0;21.0;
52290;PMS5003;39663;45.432;28.050;2023-04-24T00:20:16;22.0;21.0;
52290;PMS5003;39663;45.432;28.050;2023-04-24T00:20:48;24.0;23.0;
52290;PMS5003;39663;45.432;28.050;2023-04-24T00:21:19;22.0;21.0;
52290;PMS5003;39663;45.432;28.050;2023-04-24T00:21:51;22.0;19.0;
52290;PMS5003;39663;45.432;28.050;2023-04-24T00:22:23;26.0;25.0;
52290;PMS5003;39663;45.432;28.050;2023-04-24T00:22:54;22.0;21.0;
52290;PMS5003;39663;45.432;28.050;2023-04-24T00:23:26;19.0;19.0;
52290;PMS5003;39663;45.432;28.050;2023-04-24T00:23:57;25.0;23.0;
52290;PMS5003;39663;45.432;28.050;2023-04-24T00:24:29;24.0;24.0;
52290;PMS5003;39663;45.432;28.050;2023-04-24T00:25:01;22.0;22.0;
52290;PMS5003;39663;45.432;28.050;2023-04-24T00:25:32;21.0;19.0;
52290;PMS5003;39663;45.432;28.050;2023-04-24T00:26:04;21.0;21.0;
52290;PMS5003;39663;45.432;28.050;2023-04-24T00:26:35;25.0;23.0;
52290;PMS5003;39663;45.432;28.050;2023-04-24T00:27:07;24.0;22.0;
52290;PMS5003;39663;45.432;28.050;2023-04-24T00:27:39;22.0;22.0;
52290;PMS5003;39663;45.432;28.050;2023-04-24T00:28:11;19.0;19.0;
52290;PMS5003;39663;45.432;28.050;2023-04-24T00:28:42;21.0;19.0;
52290;PMS5003;39663;45.432;28.050;2023-04-24T00:29:14;22.0;21.0;
52290;PMS5003;39663;45.432;28.050;2023-04-24T00:29:45;23.0;22.0;
52290;PMS5003;39663;45.432;28.050;2023-04-24T00:30:17;23.0;21.0;
52290;PMS5003;39663;45.432;28.050;2023-04-24T00:30:49;29.0;28.0;
52290;PMS5003;39663;45.432;28.050;2023-04-24T00:31:20;18.0;18.0;
52290;PMS5003;39663;45.432;28.050;2023-04-24T00:31:52;21.0;19.0;
52290;PMS5003;39663;45.432;28.050;2023-04-24T00:32:23;21.0;20.0;
52290;PMS5003;39663;45.432;28.050;2023-04-24T00:32:55;22.0;19.0;
52290;PMS5003;39663;45.432;28.050;2023-04-24T00:33:27;27.0;24.0;
52290;PMS5003;39663;45.432;28.050;2023-04-24T00:33:58;22.0;22.0;
52290;PMS5003;39663;45.432;28.050;2023-04-24T00:34:30;18.0;17.0;
52290;PMS5003;39663;45.432;28.050;2023-04-24T00:35:01;25.0;24.0;
52290;PMS5003;39663;45.432;28.050;2023-04-24T00:35:33;22.0;21.0;
52290;PMS5003;39663;45.432;28.050;2023-04-24T00:36:04;20.0;16.0;
52290;PMS5003;39663;45.432;28.050;2023-04-24T00:36:36;19.0;16.0;
52290;PMS5003;39663;45.432;28.050;2023-04-24T00:37:08;21.0;19.0;
52290;PMS5003;39663;45.432;28.050;2023-04-24T00:37:39;22.0;19.0;
52290;PMS5003;39663;45.432;28.050;2023-04-24T00:38:11;23.0;21.0;
52290;PMS5003;39663;45.432;28.050;2023-04-24T00:38:43;22.0;18.0;
52290;PMS5003;39663;45.432;28.050;2023-04-24T00:39:14;26.0;23.0;
52290;PMS5003;39663;45.432;28.050;2023-04-24T00:39:45;20.0;18.0;
52290;PMS5003;39663;45.432;28.050;2023-04-24T00:40:17;21.0;20.0;
52290;PMS5003;39663;45.432;28.050;2023-04-24T00:40:49;18.0;18.0;
52290;PMS5003;39663;45.432;28.050;2023-04-24T00:41:20;27.0;25.0;
52290;PMS5003;39663;45.432;28.050;2023-04-24T00:41:52;19.0;19.0;
52290;PMS5003;39663;45.432;28.050;2023-04-24T00:42:24;21.0;19.0;
52290;PMS5003;39663;45.432;28.050;2023-04-24T00:42:56;20.0;17.0;
52290;PMS5003;39663;45.432;28.050;2023-04-24T00:43:27;16.0;15.0;
52290;PMS5003;39663;45.432;28.050;2023-04-24T00:43:59;25.0;22.0;
52290;PMS5003;39663;45.432;28.050;2023-04-24T00:44:31;22.0;21.0;
52290;PMS5003;39663;45.432;28.050;2023-04-24T00:45:03;24.0;21.0;
52290;PMS5003;39663;45.432;28.050;2023-04-24T00:45:35;19.0;19.0;
52290;PMS5003;39663;45.432;28.050;2023-04-24T00:46:07;21.0;19.0;
52290;PMS5003;39663;45.432;28.050;2023-04-24T00:46:39;22.0;20.0;
52290;PMS5003;39663;45.432;28.050;2023-04-24T00:47:11;23.0;21.0;
52290;PMS5003;39663;45.432;28.050;2023-04-24T00:47:44;19.0;19.0;
52290;PMS5003;39663;45.432;28.050;2023-04-24T00:48:17;22.0;21.0;
52290;PMS5003;39663;45.432;28.050;2023-04-24T00:48:50;20.0;18.0;
52290;PMS5003;39663;45.432;28.050;2023-04-24T00:49:22;20.0;20.0;
52290;PMS5003;39663;45.432;28.050;2023-04-24T00:49:54;23.0;22.0;
52290;PMS5003;39663;45.432;28.050;2023-04-24T00:50:26;23.0;22.0;
52290;PMS5003;39663;45.432;28.050;2023-04-24T00:50:57;24.0;21.0;
52290;PMS5003;39663;45.432;28.050;2023-04-24T00:51:29;20.0;19.0;
52290;PMS5003;39663;45.432;28.050;2023-04-24T00:52:01;21.0;19.0;
52290;PMS5003;39663;45.432;28.050;2023-04-24T00:52:32;20.0;18.0;
52290;PMS5003;39663;45.432;28.050;2023-04-24T00:53:04;18.0;18.0;
52290;PMS5003;39663;45.432;28.050;2023-04-24T00:53:36;20.0;18.0;
52290;PMS5003;39663;45.432;28.050;2023-04-24T00:54:07;18.0;16.0;
52290;PMS5003;39663;45.432;28.050;2023-04-24T00:54:39;19.0;17.0;
52290;PMS5003;39663;45.432;28.050;2023-04-24T00:55:10;18.0;17.0;
52290;PMS5003;39663;45.432;28.050;2023-04-24T00:55:42;18.0;17.0;
52290;PMS5003;39663;45.432;28.050;2023-04-24T00:56:13;19.0;19.0;
52290;PMS5003;39663;45.432;28.050;2023-04-24T00:56:45;26.0;24.0;
52290;PMS5003;39663;45.432;28.050;2023-04-24T00:57:17;19.0;17.0;
52290;PMS5003;39663;45.432;28.050;2023-04-24T00:57:49;21.0;20.0;
52290;PMS5003;39663;45.432;28.050;2023-04-24T00:58:21;19.0;18.0;
52290;PMS5003;39663;45.432;28.050;2023-04-24T00:58:52;17.0;17.0;
52290;PMS5003;39663;45.432;28.050;2023-04-24T00:59:24;17.0;15.0;
52290;PMS5003;39663;45.432;28.050;2023-04-24T00:59:56;20.0;19.0;
52290;PMS5003;39663;45.432;28.050;2023-04-24T01:00:28;20.0;20.0;
52290;PMS5003;39663;45.432;28.050;2023-04-24T01:01:00;22.0;19.0;
52290;PMS5003;39663;45.432;28.050;2023-04-24T01:01:32;20.0;19.0;
52290;PMS5003;39663;45.432;28.050;2023-04-24T01:02:04;17.0;17.0;
52290;PMS5003;39663;45.432;28.050;2023-04-24T01:02:36;22.0;19.0;
52290;PMS5003;39663;45.432;28.050;2023-04-24T01:03:09;22.0;21.0;
52290;PMS5003;39663;45.432;28.050;2023-04-24T01:03:41;22.0;21.0;
52290;PMS5003;39663;45.432;28.050;2023-04-24T01:04:13;19.0;19.0;
52290;PMS5003;39663;45.432;28.050;2023-04-24T01:04:48;22.0;19.0;
52290;PMS5003;39663;45.432;28.050;2023-04-24T01:05:21;21.0;17.0;
52290;PMS5003;39663;45.432;28.050;2023-04-24T01:05:52;21.0;21.0;
52290;PMS5003;39663;45.432;28.050;2023-04-24T01:06:27;24.0;23.0;
52290;PMS5003;39663;45.432;28.050;2023-04-24T01:06:59;20.0;19.0;
52290;PMS5003;39663;45.432;28.050;2023-04-24T01:07:31;20.0;20.0;
52290;PMS5003;39663;45.432;28.050;2023-04-24T01:08:03;25.0;23.0;
52290;PMS5003;39663;45.432;28.050;2023-04-24T01:08:34;18.0;18.0;
52290;PMS5003;39663;45.432;28.050;2023-04-24T01:09:07;23.0;20.0;
52290;PMS5003;39663;45.432;28.050;2023-04-24T01:09:40;18.0;17.0;
52290;PMS5003;39663;45.432;28.050;2023-04-24T01:10:13;23.0;19.0;
52290;PMS5003;39663;45.432;28.050;2023-04-24T01:10:45;19.0;17.0;
52290;PMS5003;39663;45.432;28.050;2023-04-24T01:11:18;20.0;20.0;
52290;PMS5003;39663;45.432;28.050;2023-04-24T01:11:50;18.0;18.0;
52290;PMS5003;39663;45.432;28.050;2023-04-24T01:12:21;17.0;17.0;
52290;PMS5003;39663;45.432;28.050;2023-04-24T01:12:53;18.0;17.0;
52290;PMS5003;39663;45.432;28.050;2023-04-24T01:13:25;22.0;22.0;
52290;PMS5003;39663;45.432;28.050;2023-04-24T01:13:57;17.0;17.0;
52290;PMS5003;39663;45.432;28.050;2023-04-24T01:14:28;19.0;18.0;
52290;PMS5003;39663;45.432;28.050;2023-04-24T01:15:00;14.0;14.0;
52290;PMS5003;39663;45.432;28.050;2023-04-24T01:15:31;24.0;21.0;
52290;PMS5003;39663;45.432;28.050;2023-04-24T01:16:03;18.0;18.0;
52290;PMS5003;39663;45.432;28.050;2023-04-24T01:16:35;18.0;18.0;
52290;PMS5003;39663;45.432;28.050;2023-04-24T01:17:06;17.0;17.0;
52290;PMS5003;39663;45.432;28.050;2023-04-24T01:17:38;25.0;23.0;
52290;PMS5003;39663;45.432;28.050;2023-04-24T01:18:10;24.0;20.0;
52290;PMS5003;39663;45.432;28.050;2023-04-24T01:18:41;20.0;19.0;
52290;PMS5003;39663;45.432;28.050;2023-04-24T01:19:13;21.0;19.0;
52290;PMS5003;39663;45.432;28.050;2023-04-24T01:19:47;25.0;23.0;
52290;PMS5003;39663;45.432;28.050;2023-04-24T01:20:18;19.0;19.0;
52290;PMS5003;39663;45.432;28.050;2023-04-24T01:20:50;19.0;17.0;
52290;PMS5003;39663;45.432;28.050;2023-04-24T01:21:23;19.0;17.0;
52290;PMS5003;39663;45.432;28.050;2023-04-24T01:21:58;22.0;22.0;
52290;PMS5003;39663;45.432;28.050;2023-04-24T01:22:32;26.0;23.0;
52290;PMS5003;39663;45.432;28.050;2023-04-24T01:23:04;27.0;23.0;
52290;PMS5003;39663;45.432;28.050;2023-04-24T01:23:36;23.0;19.0;
52290;PMS5003;39663;45.432;28.050;2023-04-24T01:24:07;26.0;22.0;
52290;PMS5003;39663;45.432;28.050;2023-04-24T01:24:39;18.0;18.0;
52290;PMS5003;39663;45.432;28.050;2023-04-24T01:25:10;21.0;19.0;
52290;PMS5003;39663;45.432;28.050;2023-04-24T01:25:42;22.0;21.0;
52290;PMS5003;39663;45.432;28.050;2023-04-24T01:26:17;21.0;21.0;
52290;PMS5003;39663;45.432;28.050;2023-04-24T01:26:49;21.0;19.0;
52290;PMS5003;39663;45.432;28.050;2023-04-24T01:27:21;23.0;18.0;
52290;PMS5003;39663;45.432;28.050;2023-04-24T01:27:52;27.0;22.0;
52290;PMS5003;39663;45.432;28.050;2023-04-24T01:28:24;22.0;21.0;
52290;PMS5003;39663;45.432;28.050;2023-04-24T01:28:55;22.0;22.0;
52290;PMS5003;39663;45.432;28.050;2023-04-24T01:29:27;22.0;20.0;
52290;PMS5003;39663;45.432;28.050;2023-04-24T01:29:58;21.0;20.0;
52290;PMS5003;39663;45.432;28.050;2023-04-24T01:30:31;22.0;19.0;
52290;PMS5003;39663;45.432;28.050;2023-04-24T01:31:03;25.0;22.0;
52290;PMS5003;39663;45.432;28.050;2023-04-24T01:31:34;21.0;21.0;
52290;PMS5003;39663;45.432;28.050;2023-04-24T01:32:06;21.0;18.0;
52290;PMS5003;39663;45.432;28.050;2023-04-24T01:32:37;22.0;22.0;
52290;PMS5003;39663;45.432;28.050;2023-04-24T01:33:09;21.0;19.0;
52290;PMS5003;39663;45.432;28.050;2023-04-24T01:33:41;18.0;18.0;
52290;PMS5003;39663;45.432;28.050;2023-04-24T01:34:13;28.0;27.0;
52290;PMS5003;39663;45.432;28.050;2023-04-24T01:34:45;23.0;21.0;
52290;PMS5003;39663;45.432;28.050;2023-04-24T01:35:17;21.0;21.0;
52290;PMS5003;39663;45.432;28.050;2023-04-24T01:35:49;19.0;18.0;
52290;PMS5003;39663;45.432;28.050;2023-04-24T01:36:21;29.0;26.0;
52290;PMS5003;39663;45.432;28.050;2023-04-24T01:36:53;25.0;25.0;
52290;PMS5003;39663;45.432;28.050;2023-04-24T01:37:24;30.0;27.0;
52290;PMS5003;39663;45.432;28.050;2023-04-24T01:37:56;23.0;22.0;
52290;PMS5003;39663;45.432;28.050;2023-04-24T01:38:27;23.0;21.0;
52290;PMS5003;39663;45.432;28.050;2023-04-24T01:38:59;22.0;21.0;
52290;PMS5003;39663;45.432;28.050;2023-04-24T01:39:30;24.0;23.0;
52290;PMS5003;39663;45.432;28.050;2023-04-24T01:40:02;25.0;22.0;
52290;PMS5003;39663;45.432;28.050;2023-04-24T01:40:34;21.0;21.0;
52290;PMS5003;39663;45.432;28.050;2023-04-24T01:41:06;31.0;31.0;
52290;PMS5003;39663;45.432;28.050;2023-04-24T01:41:37;22.0;22.0;
52290;PMS5003;39663;45.432;28.050;2023-04-24T01:42:08;25.0;22.0;
52290;PMS5003;39663;45.432;28.050;2023-04-24T01:42:40;24.0;22.0;
52290;PMS5003;39663;45.432;28.050;2023-04-24T01:43:12;25.0;23.0;
52290;PMS5003;39663;45.432;28.050;2023-04-24T01:43:44;27.0;23.0;
52290;PMS5003;39663;45.432;28.050;2023-04-24T01:44:16;32.0;30.0;
52290;PMS5003;39663;45.432;28.050;2023-04-24T01:44:48;23.0;23.0;
52290;PMS5003;39663;45.432;28.050;2023-04-24T01:45:20;22.0;20.0;
52290;PMS5003;39663;45.432;28.050;2023-04-24T01:45:51;24.0;22.0;
52290;PMS5003;39663;45.432;28.050;2023-04-24T01:46:23;24.0;23.0;
52290;PMS5003;39663;45.432;28.050;2023-04-24T01:46:55;28.0;24.0;
52290;PMS5003;39663;45.432;28.050;2023-04-24T01:47:26;35.0;29.0;
52290;PMS5003;39663;45.432;28.050;2023-04-24T01:47:58;29.0;28.0;
52290;PMS5003;39663;45.432;28.050;2023-04-24T01:48:30;30.0;27.0;
52290;PMS5003;39663;45.432;28.050;2023-04-24T01:49:02;28.0;25.0;
52290;PMS5003;39663;45.432;28.050;2023-04-24T01:49:34;31.0;30.0;
52290;PMS5003;39663;45.432;28.050;2023-04-24T01:50:06;30.0;28.0;
52290;PMS5003;39663;45.432;28.050;2023-04-24T01:50:38;32.0;28.0;
52290;PMS5003;39663;45.432;28.050;2023-04-24T01:51:10;28.0;26.0;
52290;PMS5003;39663;45.432;28.050;2023-04-24T01:51:41;31.0;31.0;
52290;PMS5003;39663;45.432;28.050;2023-04-24T01:52:13;32.0;30.0;
52290;PMS5003;39663;45.432;28.050;2023-04-24T01:52:44;31.0;31.0;
52290;PMS5003;39663;45.432;28.050;2023-04-24T01:53:15;29.0;28.0;
52290;PMS5003;39663;45.432;28.050;2023-04-24T01:53:47;31.0;28.0;
52290;PMS5003;39663;45.432;28.050;2023-04-24T01:54:18;26.0;25.0;
52290;PMS5003;39663;45.432;28.050;2023-04-24T01:54:50;31.0;27.0;
52290;PMS5003;39663;45.432;28.050;2023-04-24T01:55:22;33.0;28.0;
52290;PMS5003;39663;45.432;28.050;2023-04-24T01:55:54;26.0;26.0;
52290;PMS5003;39663;45.432;28.050;2023-04-24T01:56:25;33.0;29.0;
52290;PMS5003;39663;45.432;28.050;2023-04-24T01:56:59;28.0;27.0;
52290;PMS5003;39663;45.432;28.050;2023-04-24T01:57:31;28.0;27.0;
52290;PMS5003;39663;45.432;28.050;2023-04-24T01:58:03;33.0;27.0;
52290;PMS5003;39663;45.432;28.050;2023-04-24T01:58:35;25.0;22.0;
52290;PMS5003;39663;45.432;28.050;2023-04-24T01:59:06;34.0;33.0;
52290;PMS5003;39663;45.432;28.050;2023-04-24T01:59:39;27.0;26.0;
52290;PMS5003;39663;45.432;28.050;2023-04-24T02:00:11;30.0;27.0;
52290;PMS5003;39663;45.432;28.050;2023-04-24T02:00:43;30.0;30.0;
52290;PMS5003;39663;45.432;28.050;2023-04-24T02:01:15;33.0;28.0;
52290;PMS5003;39663;45.432;28.050;2023-04-24T02:01:49;35.0;32.0;
52290;PMS5003;39663;45.432;28.050;2023-04-24T02:02:20;34.0;31.0;
52290;PMS5003;39663;45.432;28.050;2023-04-24T02:02:52;31.0;26.0;
52290;PMS5003;39663;45.432;28.050;2023-04-24T02:03:23;27.0;26.0;
52290;PMS5003;39663;45.432;28.050;2023-04-24T02:03:56;24.0;22.0;
52290;PMS5003;39663;45.432;28.050;2023-04-24T02:04:27;31.0;28.0;
52290;PMS5003;39663;45.432;28.050;2023-04-24T02:04:59;26.0;23.0;
52290;PMS5003;39663;45.432;28.050;2023-04-24T02:05:30;32.0;30.0;
52290;PMS5003;39663;45.432;28.050;2023-04-24T02:06:02;31.0;30.0;
52290;PMS5003;39663;45.432;28.050;2023-04-24T02:06:33;25.0;23.0;
52290;PMS5003;39663;45.432;28.050;2023-04-24T02:07:05;33.0;28.0;
52290;PMS5003;39663;45.432;28.050;2023-04-24T02:07:36;27.0;27.0;
52290;PMS5003;39663;45.432;28.050;2023-04-24T02:08:08;36.0;34.0;
52290;PMS5003;39663;45.432;28.050;2023-04-24T02:08:39;28.0;26.0;
52290;PMS5003;39663;45.432;28.050;2023-04-24T02:09:11;32.0;27.0;
52290;PMS5003;39663;45.432;28.050;2023-04-24T02:09:42;33.0;30.0;
52290;PMS5003;39663;45.432;28.050;2023-04-24T02:10:13;41.0;36.0;
52290;PMS5003;39663;45.432;28.050;2023-04-24T02:10:45;38.0;35.0;
52290;PMS5003;39663;45.432;28.050;2023-04-24T02:11:16;27.0;27.0;
52290;PMS5003;39663;45.432;28.050;2023-04-24T02:11:48;28.0;26.0;
52290;PMS5003;39663;45.432;28.050;2023-04-24T02:12:19;36.0;30.0;
52290;PMS5003;39663;45.432;28.050;2023-04-24T02:12:50;38.0;33.0;
52290;PMS5003;39663;45.432;28.050;2023-04-24T02:13:22;43.0;38.0;
52290;PMS5003;39663;45.432;28.050;2023-04-24T02:13:53;32.0;31.0;
52290;PMS5003;39663;45.432;28.050;2023-04-24T02:14:25;31.0;30.0;
52290;PMS5003;39663;45.432;28.050;2023-04-24T02:14:56;33.0;33.0;
52290;PMS5003;39663;45.432;28.050;2023-04-24T02:15:28;31.0;31.0;
52290;PMS5003;39663;45.432;28.050;2023-04-24T02:15:59;33.0;31.0;
52290;PMS5003;39663;45.432;28.050;2023-04-24T02:16:31;39.0;36.0;
52290;PMS5003;39663;45.432;28.050;2023-04-24T02:17:03;31.0;26.0;
52290;PMS5003;39663;45.432;28.050;2023-04-24T02:17:34;34.0;32.0;
52290;PMS5003;39663;45.432;28.050;2023-04-24T02:18:06;28.0;27.0;
52290;PMS5003;39663;45.432;28.050;2023-04-24T02:18:37;33.0;32.0;
52290;PMS5003;39663;45.432;28.050;2023-04-24T02:19:09;29.0;27.0;
52290;PMS5003;39663;45.432;28.050;2023-04-24T02:19:40;41.0;35.0;
52290;PMS5003;39663;45.432;28.050;2023-04-24T02:20:12;34.0;34.0;
52290;PMS5003;39663;45.432;28.050;2023-04-24T02:20:43;33.0;30.0;
52290;PMS5003;39663;45.432;28.050;2023-04-24T02:21:15;32.0;28.0;
52290;PMS5003;39663;45.432;28.050;2023-04-24T02:21:46;33.0;32.0;
52290;PMS5003;39663;45.432;28.050;2023-04-24T02:22:18;34.0;30.0;
52290;PMS5003;39663;45.432;28.050;2023-04-24T02:22:49;34.0;28.0;
52290;PMS5003;39663;45.432;28.050;2023-04-24T02:23:20;31.0;31.0;
52290;PMS5003;39663;45.432;28.050;2023-04-24T02:23:52;34.0;30.0;
52290;PMS5003;39663;45.432;28.050;2023-04-24T02:24:23;34.0;29.0;
52290;PMS5003;39663;45.432;28.050;2023-04-24T02:24:55;39.0;36.0;
52290;PMS5003;39663;45.432;28.050;2023-04-24T02:25:26;35.0;30.0;
52290;PMS5003;39663;45.432;28.050;2023-04-24T02:25:58;34.0;34.0;
52290;PMS5003;39663;45.432;28.050;2023-04-24T02:26:29;38.0;35.0;
52290;PMS5003;39663;45.432;28.050;2023-04-24T02:27:01;35.0;32.0;
52290;PMS5003;39663;45.432;28.050;2023-04-24T02:27:32;39.0;37.0;
52290;PMS5003;39663;45.432;28.050;2023-04-24T02:28:03;32.0;29.0;
52290;PMS5003;39663;45.432;28.050;2023-04-24T02:28:35;33.0;29.0;
52290;PMS5003;39663;45.432;28.050;2023-04-24T02:29:07;40.0;33.0;
52290;PMS5003;39663;45.432;28.050;2023-04-24T02:29:38;34.0;31.0;
52290;PMS5003;39663;45.432;28.050;2023-04-24T02:30:10;38.0;35.0;
52290;PMS5003;39663;45.432;28.050;2023-04-24T02:30:42;32.0;32.0;
52290;PMS5003;39663;45.432;28.050;2023-04-24T02:31:14;33.0;30.0;
52290;PMS5003;39663;45.432;28.050;2023-04-24T02:31:45;40.0;36.0;
52290;PMS5003;39663;45.432;28.050;2023-04-24T02:32:17;41.0;37.0;
52290;PMS5003;39663;45.432;28.050;2023-04-24T02:32:48;44.0;38.0;
52290;PMS5003;39663;45.432;28.050;2023-04-24T02:33:20;33.0;32.0;
52290;PMS5003;39663;45.432;28.050;2023-04-24T02:33:51;37.0;35.0;
52290;PMS5003;39663;45.432;28.050;2023-04-24T02:34:23;41.0;39.0;
52290;PMS5003;39663;45.432;28.050;2023-04-24T02:34:55;39.0;39.0;
52290;PMS5003;39663;45.432;28.050;2023-04-24T02:35:26;42.0;39.0;
52290;PMS5003;39663;45.432;28.050;2023-04-24T02:35:58;32.0;31.0;
52290;PMS5003;39663;45.432;28.050;2023-04-24T02:36:30;36.0;33.0;
52290;PMS5003;39663;45.432;28.050;2023-04-24T02:37:01;40.0;36.0;
52290;PMS5003;39663;45.432;28.050;2023-04-24T02:37:32;39.0;38.0;
52290;PMS5003;39663;45.432;28.050;2023-04-24T02:38:04;42.0;35.0;
52290;PMS5003;39663;45.432;28.050;2023-04-24T02:38:36;39.0;35.0;
52290;PMS5003;39663;45.432;28.050;2023-04-24T02:39:07;38.0;38.0;
52290;PMS5003;39663;45.432;28.050;2023-04-24T02:39:39;37.0;36.0;
52290;PMS5003;39663;45.432;28.050;2023-04-24T02:40:11;40.0;37.0;
52290;PMS5003;39663;45.432;28.050;2023-04-24T02:40:43;42.0;39.0;
52290;PMS5003;39663;45.432;28.050;2023-04-24T02:41:14;41.0;35.0;
52290;PMS5003;39663;45.432;28.050;2023-04-24T02:41:46;40.0;38.0;
52290;PMS5003;39663;45.432;28.050;2023-04-24T02:42:17;43.0;41.0;
52290;PMS5003;39663;45.432;28.050;2023-04-24T02:42:49;41.0;40.0;
52290;PMS5003;39663;45.432;28.050;2023-04-24T02:43:20;40.0;37.0;
52290;PMS5003;39663;45.432;28.050;2023-04-24T02:43:52;42.0;42.0;
52290;PMS5003;39663;45.432;28.050;2023-04-24T02:44:24;46.0;39.0;
52290;PMS5003;39663;45.432;28.050;2023-04-24T02:44:55;38.0;37.0;
52290;PMS5003;39663;45.432;28.050;2023-04-24T02:45:27;37.0;36.0;
52290;PMS5003;39663;45.432;28.050;2023-04-24T02:45:58;42.0;39.0;
52290;PMS5003;39663;45.432;28.050;2023-04-24T02:46:30;43.0;39.0;
52290;PMS5003;39663;45.432;28.050;2023-04-24T02:47:01;44.0;41.0;
52290;PMS5003;39663;45.432;28.050;2023-04-24T02:47:33;40.0;39.0;
52290;PMS5003;39663;45.432;28.050;2023-04-24T02:48:05;44.0;41.0;
52290;PMS5003;39663;45.432;28.050;2023-04-24T02:48:36;42.0;41.0;
52290;PMS5003;39663;45.432;28.050;2023-04-24T02:49:08;42.0;39.0;
52290;PMS5003;39663;45.432;28.050;2023-04-24T02:49:40;39.0;37.0;
52290;PMS5003;39663;45.432;28.050;2023-04-24T02:50:11;39.0;39.0;
52290;PMS5003;39663;45.432;28.050;2023-04-24T02:50:43;44.0;42.0;
52290;PMS5003;39663;45.432;28.050;2023-04-24T02:51:15;46.0;43.0;
52290;PMS5003;39663;45.432;28.050;2023-04-24T02:51:46;46.0;44.0;
52290;PMS5003;39663;45.432;28.050;2023-04-24T02:52:17;43.0;42.0;
52290;PMS5003;39663;45.432;28.050;2023-04-24T02:52:49;40.0;37.0;
52290;PMS5003;39663;45.432;28.050;2023-04-24T02:53:20;42.0;39.0;
52290;PMS5003;39663;45.432;28.050;2023-04-24T02:53:52;45.0;43.0;
52290;PMS5003;39663;45.432;28.050;2023-04-24T02:54:24;42.0;39.0;
52290;PMS5003;39663;45.432;28.050;2023-04-24T02:54:55;47.0;46.0;
52290;PMS5003;39663;45.432;28.050;2023-04-24T02:55:26;40.0;38.0;
52290;PMS5003;39663;45.432;28.050;2023-04-24T02:55:58;54.0;50.0;
52290;PMS5003;39663;45.432;28.050;2023-04-24T02:56:30;59.0;51.0;
52290;PMS5003;39663;45.432;28.050;2023-04-24T02:57:01;57.0;54.0;
52290;PMS5003;39663;45.432;28.050;2023-04-24T02:57:33;74.0;69.0;
52290;PMS5003;39663;45.432;28.050;2023-04-24T02:58:05;89.0;76.0;
52290;PMS5003;39663;45.432;28.050;2023-04-24T02:58:36;109.0;99.0;
52290;PMS5003;39663;45.432;28.050;2023-04-24T02:59:08;76.0;71.0;
52290;PMS5003;39663;45.432;28.050;2023-04-24T02:59:40;60.0;54.0;
52290;PMS5003;39663;45.432;28.050;2023-04-24T03:00:11;94.0;83.0;
52290;PMS5003;39663;45.432;28.050;2023-04-24T03:00:43;101.0;87.0;
52290;PMS5003;39663;45.432;28.050;2023-04-24T03:01:15;62.0;57.0;
52290;PMS5003;39663;45.432;28.050;2023-04-24T03:01:46;51.0;47.0;
52290;PMS5003;39663;45.432;28.050;2023-04-24T03:02:18;47.0;46.0;
52290;PMS5003;39663;45.432;28.050;2023-04-24T03:02:49;37.0;37.0;
52290;PMS5003;39663;45.432;28.050;2023-04-24T03:03:21;57.0;50.0;
52290;PMS5003;39663;45.432;28.050;2023-04-24T03:03:52;58.0;56.0;
52290;PMS5003;39663;45.432;28.050;2023-04-24T03:04:24;41.0;41.0;
52290;PMS5003;39663;45.432;28.050;2023-04-24T03:04:55;47.0;46.0;
52290;PMS5003;39663;45.432;28.050;2023-04-24T03:05:27;42.0;39.0;
52290;PMS5003;39663;45.432;28.050;2023-04-24T03:05:58;48.0;45.0;
52290;PMS5003;39663;45.432;28.050;2023-04-24T03:06:30;41.0;37.0;
52290;PMS5003;39663;45.432;28.050;2023-04-24T03:07:01;49.0;43.0;
52290;PMS5003;39663;45.432;28.050;2023-04-24T03:07:33;45.0;42.0;
52290;PMS5003;39663;45.432;28.050;2023-04-24T03:08:04;46.0;44.0;
52290;PMS5003;39663;45.432;28.050;2023-04-24T03:08:36;52.0;46.0;
52290;PMS5003;39663;45.432;28.050;2023-04-24T03:09:07;42.0;41.0;
52290;PMS5003;39663;45.432;28.050;2023-04-24T03:09:39;48.0;46.0;
52290;PMS5003;39663;45.432;28.050;2023-04-24T03:10:11;59.0;51.0;
52290;PMS5003;39663;45.432;28.050;2023-04-24T03:10:42;47.0;44.0;
52290;PMS5003;39663;45.432;28.050;2023-04-24T03:11:14;48.0;45.0;
52290;PMS5003;39663;45.432;28.050;2023-04-24T03:11:45;46.0;44.0;
52290;PMS5003;39663;45.432;28.050;2023-04-24T03:12:17;40.0;39.0;
52290;PMS5003;39663;45.432;28.050;2023-04-24T03:12:48;52.0;47.0;
52290;PMS5003;39663;45.432;28.050;2023-04-24T03:13:20;48.0;47.0;
52290;PMS5003;39663;45.432;28.050;2023-04-24T03:13:51;46.0;41.0;
52290;PMS5003;39663;45.432;28.050;2023-04-24T03:14:23;48.0;44.0;
52290;PMS5003;39663;45.432;28.050;2023-04-24T03:14:55;47.0;44.0;
52290;PMS5003;39663;45.432;28.050;2023-04-24T03:15:26;45.0;42.0;
52290;PMS5003;39663;45.432;28.050;2023-04-24T03:15:58;43.0;41.0;
52290;PMS5003;39663;45.432;28.050;2023-04-24T03:16:29;50.0;47.0;
52290;PMS5003;39663;45.432;28.050;2023-04-24T03:17:01;45.0;44.0;
52290;PMS5003;39663;45.432;28.050;2023-04-24T03:17:32;44.0;42.0;
52290;PMS5003;39663;45.432;28.050;2023-04-24T03:18:04;47.0;45.0;
52290;PMS5003;39663;45.432;28.050;2023-04-24T03:18:35;49.0;40.0;
52290;PMS5003;39663;45.432;28.050;2023-04-24T03:19:06;53.0;44.0;
52290;PMS5003;39663;45.432;28.050;2023-04-24T03:19:38;54.0;48.0;
52290;PMS5003;39663;45.432;28.050;2023-04-24T03:20:09;48.0;46.0;
52290;PMS5003;39663;45.432;28.050;2023-04-24T03:20:41;43.0;40.0;
52290;PMS5003;39663;45.432;28.050;2023-04-24T03:21:13;50.0;44.0;
52290;PMS5003;39663;45.432;28.050;2023-04-24T03:21:44;54.0;45.0;